Salt Lake City, Utah
Current Conditions -  °F | °C
As of 9:53 AM on Tuesday 27 Jan 2015 (Local Time) from KSLC Reporting Station
Haze Haze  
Wind Chill:   Ceiling: 20000
Heat Index:   Visibility: 6mi
Dew Point:   Wind: 5mph
Humidity: 83%   Direction: 220°SW
Pressure: 30.23"   Gusts: NA
Location:  40.76°N, 111.88°W
Report Text: KSLC 271653Z 22004KT 6SM HZ SCT095 SCT120 BKN200 03/01 A3023 RMK AO2 SLP234 ACSL DSNT NE T00330006
Loading
Personal Weather Stations






























Interactive Weather Map New forecast layout! Learn more

10-Day Weather Forecast

Advertisements
Track Severe Weather on mobile